Kizlyar, Russia
Current Conditions -  °F | °C
As of 4:00 AM on Wednesday 28 Jan 2015 (Local Time) from URML Reporting Station
Haze Haze  
Wind Chill: 30°   Ceiling: 500
Heat Index: 39°   Visibility: 3mi
Dew Point: 37°   Wind: 18mph
Humidity: 93%   Direction: 140°SE
Pressure: 30.15"   Gusts: NA
Location:  43.85°N, 46.72°E
Report Text: URML 280100Z 14008MPS 5000 BR BKN005 OVC016 04/03 Q1021 NOSIGRMK QBB170 MT OBSC QFE766/1021 SC055
Loading
Personal Weather Stations






























Interactive Weather Map New forecast layout! Learn more

10-Day Weather Forecast

Advertisements
Track Severe Weather on mobile